createdAt,value
2017-01-13T00:00:10.107Z,0
2017-01-13T00:01:10.857Z,0
2017-01-13T00:02:11.622Z,0
2017-01-13T00:03:12.367Z,0
2017-01-13T00:04:13.122Z,0
2017-01-13T00:05:13.911Z,0
2017-01-13T00:06:14.667Z,0
2017-01-13T00:07:15.415Z,0
2017-01-13T00:08:16.204Z,0
2017-01-13T00:09:16.987Z,0
2017-01-13T00:10:17.731Z,0
2017-01-13T00:11:18.491Z,0
2017-01-13T00:12:19.254Z,0
2017-01-13T00:13:20.033Z,0
2017-01-13T00:14:20.779Z,0
2017-01-13T00:15:21.535Z,0
2017-01-13T00:16:22.295Z,0
2017-01-13T00:17:23.054Z,0
2017-01-13T00:18:23.797Z,0
2017-01-13T00:19:24.565Z,0
2017-01-13T00:20:25.329Z,0
2017-01-13T00:21:26.094Z,0
2017-01-13T00:22:26.855Z,0
2017-01-13T00:23:27.620Z,0
2017-01-13T00:24:28.387Z,0
2017-01-13T00:25:29.147Z,0
2017-01-13T00:26:29.896Z,0
2017-01-13T00:27:30.664Z,0
2017-01-13T00:28:31.419Z,0
2017-01-13T00:29:32.172Z,0
2017-01-13T00:30:32.941Z,0
2017-01-13T00:31:33.709Z,0
2017-01-13T00:32:34.460Z,0
2017-01-13T00:33:35.245Z,0
2017-01-13T00:34:36.005Z,0
2017-01-13T00:35:36.773Z,0
2017-01-13T00:36:37.538Z,0
2017-01-13T00:37:38.321Z,0
2017-01-13T00:38:39.086Z,0
2017-01-13T00:39:39.870Z,0
2017-01-13T00:40:40.654Z,0
2017-01-13T00:41:41.400Z,0
2017-01-13T00:42:42.164Z,0
2017-01-13T00:43:42.987Z,0
2017-01-13T00:44:43.728Z,0
2017-01-13T00:45:44.471Z,0
2017-01-13T00:46:45.230Z,0
2017-01-13T00:47:45.989Z,0
2017-01-13T00:48:46.776Z,0
2017-01-13T00:49:47.536Z,0
2017-01-13T00:50:48.287Z,0
2017-01-13T00:51:49.051Z,0
2017-01-13T00:52:49.808Z,0
2017-01-13T00:53:50.557Z,0
2017-01-13T00:54:51.306Z,0
2017-01-13T00:55:52.064Z,0
2017-01-13T00:56:52.817Z,0
2017-01-13T00:57:53.570Z,0
2017-01-13T00:58:54.342Z,0
2017-01-13T00:59:55.097Z,0
2017-01-13T01:00:55.858Z,0
2017-01-13T01:01:56.597Z,0
2017-01-13T01:02:57.353Z,0
2017-01-13T01:03:58.132Z,0
2017-01-13T01:04:58.892Z,0
2017-01-13T01:05:59.652Z,0
2017-01-13T01:07:00.408Z,0
2017-01-13T01:08:01.155Z,0
2017-01-13T01:09:01.910Z,0
2017-01-13T01:10:02.681Z,0
2017-01-13T01:11:03.430Z,0
2017-01-13T01:12:04.211Z,0
2017-01-13T01:13:04.969Z,0
2017-01-13T01:14:05.717Z,0
2017-01-13T01:15:06.473Z,0
2017-01-13T01:16:07.245Z,0
2017-01-13T01:17:08.004Z,0
2017-01-13T01:18:08.777Z,0
2017-01-13T01:19:09.520Z,0
2017-01-13T01:20:10.283Z,0
2017-01-13T01:21:11.029Z,0
2017-01-13T01:22:11.799Z,0
2017-01-13T01:23:12.537Z,0
2017-01-13T01:24:13.307Z,0
2017-01-13T01:25:14.055Z,0
2017-01-13T01:26:14.815Z,0
2017-01-13T01:27:15.551Z,0
2017-01-13T01:28:16.360Z,0
2017-01-13T01:29:17.104Z,0
2017-01-13T01:30:17.857Z,0
2017-01-13T01:31:18.608Z,0
2017-01-13T01:32:19.376Z,0
2017-01-13T01:33:20.145Z,0
2017-01-13T01:34:20.898Z,0
2017-01-13T01:35:21.647Z,0
2017-01-13T01:36:22.421Z,0
2017-01-13T01:37:23.172Z,0
2017-01-13T01:38:24.021Z,0
2017-01-13T01:39:24.766Z,0
2017-01-13T01:40:25.522Z,0
2017-01-13T01:41:26.277Z,0
2017-01-13T01:42:27.034Z,0
2017-01-13T01:43:27.788Z,0
2017-01-13T01:44:28.544Z,0
2017-01-13T01:45:29.330Z,0
2017-01-13T01:46:30.093Z,0
2017-01-13T01:47:30.851Z,0
2017-01-13T01:48:31.597Z,0
2017-01-13T01:49:32.366Z,0
2017-01-13T01:50:33.126Z,0
2017-01-13T01:51:33.887Z,0
2017-01-13T01:52:34.647Z,0
2017-01-13T01:53:35.432Z,0
2017-01-13T01:54:36.185Z,0
2017-01-13T01:55:36.927Z,0
2017-01-13T01:56:37.692Z,0
2017-01-13T01:57:38.452Z,0
2017-01-13T01:58:39.187Z,0
2017-01-13T01:59:39.952Z,0
2017-01-13T02:00:40.768Z,0
2017-01-13T02:01:41.520Z,0
2017-01-13T02:02:42.302Z,0
2017-01-13T02:03:43.071Z,0
2017-01-13T02:04:43.819Z,0
2017-01-13T02:05:44.588Z,0
2017-01-13T02:06:45.340Z,0
2017-01-13T02:07:46.109Z,0
2017-01-13T02:08:46.869Z,0
2017-01-13T02:09:47.632Z,0
2017-01-13T02:10:48.387Z,0
2017-01-13T02:11:49.166Z,0
2017-01-13T02:12:49.925Z,0
2017-01-13T02:13:50.698Z,0
2017-01-13T02:14:51.462Z,0
2017-01-13T02:15:52.209Z,0
2017-01-13T02:16:52.955Z,0
2017-01-13T02:17:53.697Z,0
2017-01-13T02:18:54.445Z,0
2017-01-13T02:19:55.207Z,0
2017-01-13T02:20:55.957Z,0
2017-01-13T02:21:56.702Z,0
2017-01-13T02:22:57.445Z,0
2017-01-13T02:23:58.187Z,0
2017-01-13T02:24:58.929Z,0
2017-01-13T02:25:59.676Z,0
2017-01-13T02:27:00.441Z,0
2017-01-13T02:28:01.219Z,0
2017-01-13T02:29:01.968Z,0
2017-01-13T02:30:02.745Z,0
2017-01-13T02:31:03.545Z,0
2017-01-13T02:32:04.322Z,0
2017-01-13T02:33:05.075Z,0
2017-01-13T02:34:05.856Z,0
2017-01-13T02:35:06.633Z,0
2017-01-13T02:36:07.357Z,0
2017-01-13T02:37:08.115Z,0
2017-01-13T02:38:08.873Z,0
2017-01-13T02:39:12.334Z,0
2017-01-13T02:40:13.104Z,0
2017-01-13T02:41:13.882Z,0
2017-01-13T02:42:14.645Z,0
2017-01-13T02:43:15.393Z,0
2017-01-13T02:44:16.172Z,0
2017-01-13T02:45:16.984Z,0
2017-01-13T02:46:17.780Z,0
2017-01-13T02:47:18.541Z,0
2017-01-13T02:48:19.299Z,0
2017-01-13T02:49:20.047Z,0
2017-01-13T02:50:21.112Z,0
2017-01-13T02:51:22.522Z,0
2017-01-13T02:52:23.399Z,0
2017-01-13T02:53:24.207Z,0
2017-01-13T02:54:24.971Z,0
2017-01-13T02:55:25.742Z,0
2017-01-13T02:56:26.497Z,0
2017-01-13T02:57:27.261Z,0
2017-01-13T02:58:28.030Z,0
2017-01-13T02:59:28.801Z,0
2017-01-13T03:00:29.541Z,0
2017-01-13T03:01:30.299Z,0
2017-01-13T03:02:31.066Z,0
2017-01-13T03:03:31.832Z,0
2017-01-13T03:04:32.588Z,0
2017-01-13T03:05:33.353Z,0
2017-01-13T03:06:34.096Z,0
2017-01-13T03:07:34.877Z,0
2017-01-13T03:08:35.620Z,0
2017-01-13T03:09:36.386Z,0
2017-01-13T03:10:37.146Z,0
2017-01-13T03:11:37.907Z,0
2017-01-13T03:12:38.682Z,0
2017-01-13T03:13:39.461Z,0
2017-01-13T03:14:40.237Z,0
2017-01-13T03:15:41.007Z,0
2017-01-13T03:16:41.759Z,0
2017-01-13T03:17:42.535Z,0
2017-01-13T03:18:43.291Z,0
2017-01-13T03:19:44.072Z,0
2017-01-13T03:20:44.836Z,0
2017-01-13T03:21:45.610Z,0
2017-01-13T03:22:46.343Z,0
2017-01-13T03:23:47.113Z,0
2017-01-13T03:24:47.868Z,0
2017-01-13T03:25:48.608Z,0
2017-01-13T03:26:49.357Z,0
2017-01-13T03:27:50.114Z,0
2017-01-13T03:28:50.876Z,0
2017-01-13T03:29:51.613Z,0
2017-01-13T03:30:52.365Z,0
2017-01-13T03:31:53.105Z,0
2017-01-13T03:32:53.848Z,0
2017-01-13T03:33:54.596Z,0
2017-01-13T03:34:55.335Z,0
2017-01-13T03:35:56.091Z,0
2017-01-13T03:36:56.836Z,0
2017-01-13T03:37:57.590Z,0
2017-01-13T03:38:58.345Z,0
2017-01-13T03:39:59.106Z,0
2017-01-13T03:40:59.858Z,0
2017-01-13T03:42:00.638Z,0
2017-01-13T03:43:01.385Z,0
2017-01-13T03:44:02.153Z,0
2017-01-13T03:45:02.914Z,0
2017-01-13T03:46:03.654Z,0
2017-01-13T03:47:04.432Z,0
2017-01-13T03:48:05.184Z,0
2017-01-13T03:49:05.931Z,0
2017-01-13T03:50:06.683Z,0
2017-01-13T03:51:07.441Z,0
2017-01-13T03:52:08.201Z,0
2017-01-13T03:53:08.978Z,0
2017-01-13T03:54:09.760Z,0
2017-01-13T03:55:10.521Z,0
2017-01-13T03:56:11.261Z,0
2017-01-13T03:57:12.023Z,0
2017-01-13T03:58:12.775Z,0
2017-01-13T03:59:13.540Z,0
2017-01-13T04:00:14.300Z,0
2017-01-13T04:01:15.080Z,0
2017-01-13T04:02:15.842Z,0
2017-01-13T04:03:16.606Z,0
2017-01-13T04:04:17.352Z,0
2017-01-13T04:05:18.122Z,0
2017-01-13T04:06:18.882Z,0
2017-01-13T04:07:19.639Z,0
2017-01-13T04:08:20.392Z,0
2017-01-13T04:09:21.180Z,0
2017-01-13T04:10:21.929Z,0
2017-01-13T04:11:22.674Z,0
2017-01-13T04:12:23.429Z,0
2017-01-13T04:13:24.221Z,0
2017-01-13T04:14:24.995Z,0
2017-01-13T04:15:25.757Z,0
2017-01-13T04:16:26.497Z,0
2017-01-13T04:17:27.250Z,0
2017-01-13T04:18:28.005Z,0
2017-01-13T04:19:28.767Z,0
2017-01-13T04:20:29.532Z,0
2017-01-13T04:21:30.280Z,0
2017-01-13T04:22:31.024Z,0
2017-01-13T04:23:31.782Z,0
2017-01-13T04:24:32.532Z,0
2017-01-13T04:25:33.298Z,0
2017-01-13T04:26:34.057Z,0
2017-01-13T04:27:34.825Z,0
2017-01-13T04:28:35.590Z,0
2017-01-13T04:29:36.332Z,0
2017-01-13T04:30:37.121Z,0
2017-01-13T04:31:37.867Z,0
2017-01-13T04:32:38.616Z,0
2017-01-13T04:33:39.379Z,0
2017-01-13T04:34:40.122Z,0
2017-01-13T04:35:40.877Z,0
2017-01-13T04:36:41.648Z,0
2017-01-13T04:37:42.432Z,0
2017-01-13T04:38:43.196Z,0
2017-01-13T04:39:43.949Z,0
2017-01-13T04:40:44.690Z,0
2017-01-13T04:41:45.447Z,0
2017-01-13T04:42:46.201Z,0
2017-01-13T04:43:46.943Z,0
2017-01-13T04:44:47.690Z,0
2017-01-13T04:45:48.435Z,0
2017-01-13T04:46:49.195Z,0
2017-01-13T04:47:49.950Z,0
2017-01-13T04:48:50.699Z,0
2017-01-13T04:49:51.480Z,0
2017-01-13T04:50:52.226Z,0
2017-01-13T04:51:52.972Z,0
2017-01-13T04:52:53.724Z,0
2017-01-13T04:53:54.496Z,0
2017-01-13T04:54:55.247Z,0
2017-01-13T04:55:56.013Z,0
2017-01-13T04:56:56.764Z,0
2017-01-13T04:57:57.499Z,0
2017-01-13T04:58:58.257Z,0
2017-01-13T04:59:59.011Z,0
2017-01-13T05:00:59.751Z,0
2017-01-13T05:02:00.511Z,0
2017-01-13T05:03:01.274Z,0
2017-01-13T05:04:02.010Z,0
2017-01-13T05:05:02.772Z,0
2017-01-13T05:06:03.518Z,0
2017-01-13T05:07:04.271Z,0
2017-01-13T05:08:05.007Z,0
2017-01-13T05:09:05.757Z,0
2017-01-13T05:10:06.528Z,0
2017-01-13T05:11:07.278Z,0
2017-01-13T05:12:08.038Z,0
2017-01-13T05:13:08.805Z,0
2017-01-13T05:14:09.549Z,0
2017-01-13T05:15:10.292Z,0
2017-01-13T05:16:11.038Z,0
2017-01-13T05:17:11.792Z,0
2017-01-13T05:18:12.563Z,0
2017-01-13T05:19:13.308Z,0
2017-01-13T05:20:14.063Z,0
2017-01-13T05:21:14.808Z,0
2017-01-13T05:22:15.597Z,0
2017-01-13T05:23:16.352Z,0
2017-01-13T05:24:17.143Z,0
2017-01-13T05:25:17.895Z,0
2017-01-13T05:26:18.655Z,0
2017-01-13T05:27:19.410Z,0
2017-01-13T05:28:20.167Z,0
2017-01-13T05:29:20.904Z,0
2017-01-13T05:30:28.478Z,0
2017-01-13T05:31:29.271Z,0
2017-01-13T05:32:30.138Z,0
2017-01-13T05:33:30.908Z,0
2017-01-13T05:34:31.752Z,0
2017-01-13T05:35:33.116Z,0
2017-01-13T05:36:34.137Z,0
2017-01-13T05:37:34.972Z,0
2017-01-13T05:38:35.709Z,0
2017-01-13T05:39:36.472Z,0
2017-01-13T05:40:37.233Z,0
2017-01-13T05:41:37.974Z,0
2017-01-13T05:42:38.721Z,0
2017-01-13T05:43:39.458Z,0
2017-01-13T05:44:40.261Z,0
2017-01-13T05:45:41.021Z,0
2017-01-13T05:46:41.768Z,0
2017-01-13T05:47:42.611Z,0
2017-01-13T05:48:43.346Z,0
2017-01-13T05:49:44.112Z,0
2017-01-13T05:50:44.872Z,0
2017-01-13T05:51:45.695Z,0
2017-01-13T05:52:46.407Z,0
2017-01-13T05:53:47.154Z,0
2017-01-13T05:54:47.923Z,0
2017-01-13T05:55:48.675Z,0
2017-01-13T05:56:49.438Z,0
2017-01-13T05:57:50.198Z,0
2017-01-13T05:58:50.951Z,0
2017-01-13T05:59:51.696Z,0
2017-01-13T06:00:52.439Z,0
2017-01-13T06:01:53.216Z,0
2017-01-13T06:02:53.954Z,0
2017-01-13T06:03:54.746Z,0
2017-01-13T06:04:55.500Z,0
2017-01-13T06:05:56.241Z,0
2017-01-13T06:06:56.989Z,0
2017-01-13T06:07:57.762Z,0
2017-01-13T06:08:58.511Z,0
2017-01-13T06:09:59.329Z,0
2017-01-13T06:11:00.081Z,0
2017-01-13T06:12:00.834Z,0
2017-01-13T06:13:01.595Z,0
2017-01-13T06:14:02.340Z,0
2017-01-13T06:15:03.092Z,0
2017-01-13T06:16:03.860Z,0
2017-01-13T06:17:04.615Z,0
2017-01-13T06:18:05.369Z,0
2017-01-13T06:19:06.125Z,0
2017-01-13T06:20:06.871Z,0
2017-01-13T06:21:07.637Z,0
2017-01-13T06:22:08.394Z,0
2017-01-13T06:23:09.141Z,0
2017-01-13T06:24:09.892Z,0
2017-01-13T06:25:10.652Z,0
2017-01-13T06:26:11.397Z,0
2017-01-13T06:27:12.170Z,0
2017-01-13T06:28:12.946Z,0
2017-01-13T06:29:13.699Z,0
2017-01-13T06:30:14.484Z,0
2017-01-13T06:31:15.243Z,0
2017-01-13T06:32:15.997Z,0
2017-01-13T06:33:16.728Z,0
2017-01-13T06:34:17.480Z,0
2017-01-13T06:35:18.214Z,0
2017-01-13T06:36:18.972Z,0
2017-01-13T06:37:19.733Z,0
2017-01-13T06:38:20.501Z,0
2017-01-13T06:39:21.378Z,0
2017-01-13T06:40:22.160Z,0
2017-01-13T06:41:22.923Z,0
2017-01-13T06:42:23.686Z,0
2017-01-13T06:43:24.479Z,0
2017-01-13T06:44:25.273Z,0
2017-01-13T06:45:26.028Z,0
2017-01-13T06:46:26.793Z,0
2017-01-13T06:47:27.559Z,0
2017-01-13T06:48:28.311Z,0
2017-01-13T06:49:29.056Z,0
2017-01-13T06:50:29.797Z,0
2017-01-13T06:51:30.545Z,0
2017-01-13T06:52:31.273Z,0
2017-01-13T06:53:32.029Z,0
2017-01-13T06:54:32.785Z,0
2017-01-13T06:55:33.602Z,0
2017-01-13T06:56:34.348Z,0
2017-01-13T06:57:35.092Z,0
2017-01-13T06:58:35.840Z,4
2017-01-13T06:59:36.608Z,4
2017-01-13T07:00:37.360Z,0
2017-01-13T07:01:38.107Z,4
2017-01-13T07:02:38.869Z,4
2017-01-13T07:03:39.642Z,4
2017-01-13T07:04:40.379Z,4
2017-01-13T07:05:41.132Z,4
2017-01-13T07:06:41.880Z,4
2017-01-13T07:07:42.638Z,8
2017-01-13T07:08:43.387Z,8
2017-01-13T07:09:44.176Z,8
2017-01-13T07:10:44.928Z,12
2017-01-13T07:11:45.669Z,12
2017-01-13T07:12:46.432Z,12
2017-01-13T07:13:47.180Z,16
2017-01-13T07:14:47.937Z,16
2017-01-13T07:15:48.689Z,24
2017-01-13T07:16:49.447Z,24
2017-01-13T07:17:50.192Z,24
2017-01-13T07:18:50.951Z,28
2017-01-13T07:19:51.690Z,36
2017-01-13T07:20:52.485Z,36
2017-01-13T07:21:53.253Z,44
2017-01-13T07:22:54.040Z,48
2017-01-13T07:23:54.793Z,52
2017-01-13T07:24:55.544Z,60
2017-01-13T07:25:56.283Z,68
2017-01-13T07:26:57.039Z,72
2017-01-13T07:27:57.810Z,84
2017-01-13T07:28:58.576Z,84
2017-01-13T07:29:59.318Z,88
2017-01-13T07:31:00.060Z,96
2017-01-13T07:32:00.807Z,96
2017-01-13T07:33:01.614Z,104
2017-01-13T07:34:02.377Z,100
2017-01-13T07:35:03.122Z,112
2017-01-13T07:36:03.866Z,128
2017-01-13T07:37:04.617Z,128
2017-01-13T07:38:05.381Z,132
2017-01-13T07:39:06.140Z,140
2017-01-13T07:40:06.894Z,148
2017-01-13T07:41:07.661Z,156
2017-01-13T07:42:08.412Z,168
2017-01-13T07:43:09.166Z,180
2017-01-13T07:44:09.923Z,192
2017-01-13T07:45:10.668Z,188
2017-01-13T07:46:11.514Z,192
2017-01-13T07:47:12.284Z,208
2017-01-13T07:48:13.095Z,228
2017-01-13T07:49:13.855Z,240
2017-01-13T07:50:14.619Z,256
2017-01-13T07:51:15.376Z,272
2017-01-13T07:52:17.790Z,292
2017-01-13T07:53:20.474Z,292
2017-01-13T07:54:21.932Z,340
2017-01-13T07:55:23.284Z,352
2017-01-13T07:56:24.678Z,364
2017-01-13T07:57:28.485Z,388
2017-01-13T07:58:29.768Z,412
2017-01-13T07:59:30.891Z,428
2017-01-13T08:00:32.480Z,424
2017-01-13T08:01:35.678Z,452
2017-01-13T08:02:36.938Z,496
2017-01-13T08:03:37.728Z,528
2017-01-13T08:04:38.528Z,524
2017-01-13T08:05:39.345Z,540
2017-01-13T08:06:40.185Z,580
2017-01-13T08:07:40.978Z,664
2017-01-13T08:08:41.767Z,680
2017-01-13T08:09:42.555Z,696
2017-01-13T08:10:43.357Z,764
2017-01-13T08:11:44.126Z,772
2017-01-13T08:12:44.929Z,772
2017-01-13T08:13:45.707Z,764
2017-01-13T08:14:46.497Z,824
2017-01-13T08:15:47.291Z,872
2017-01-13T08:16:48.308Z,896
2017-01-13T08:17:49.125Z,864
2017-01-13T08:18:49.930Z,920
2017-01-13T08:19:50.807Z,856
2017-01-13T08:20:51.656Z,880
2017-01-13T08:21:52.467Z,912
2017-01-13T08:22:53.270Z,952
2017-01-13T08:23:54.059Z,932
2017-01-13T08:24:54.860Z,984
2017-01-13T08:25:55.675Z,1020
2017-01-13T08:26:56.480Z,1060
2017-01-13T08:27:57.303Z,1120
2017-01-13T08:28:58.114Z,1036
2017-01-13T08:29:58.908Z,1068
2017-01-13T08:30:59.754Z,952
2017-01-13T08:32:00.575Z,872
2017-01-13T08:33:01.421Z,860
2017-01-13T08:34:02.228Z,784
2017-01-13T08:35:03.051Z,736
2017-01-13T08:36:03.887Z,764
2017-01-13T08:37:04.702Z,796
2017-01-13T08:38:05.501Z,796
2017-01-13T08:39:06.340Z,852
2017-01-13T08:40:07.135Z,892
2017-01-13T08:41:07.928Z,956
2017-01-13T08:42:08.727Z,968
2017-01-13T08:43:09.538Z,912
2017-01-13T08:44:10.370Z,980
2017-01-13T08:45:11.198Z,1000
2017-01-13T08:46:11.966Z,956
2017-01-13T08:47:12.735Z,992
2017-01-13T08:48:13.572Z,1124
2017-01-13T08:49:14.420Z,1168
2017-01-13T08:50:15.267Z,1120
2017-01-13T08:51:16.304Z,1116
2017-01-13T08:52:17.115Z,1096
2017-01-13T08:53:17.976Z,1080
2017-01-13T08:54:18.758Z,1148
2017-01-13T08:55:19.549Z,1104
2017-01-13T08:56:20.386Z,1168
2017-01-13T08:57:21.221Z,1136
2017-01-13T08:58:21.993Z,1204
2017-01-13T08:59:22.822Z,1240
2017-01-13T09:00:23.646Z,1296
2017-01-13T09:01:24.495Z,1276
2017-01-13T09:02:25.304Z,1304
2017-01-13T09:03:26.130Z,1464
2017-01-13T09:04:26.918Z,1432
2017-01-13T09:05:27.737Z,1452
2017-01-13T09:06:28.530Z,1468
2017-01-13T09:07:29.352Z,1732
2017-01-13T09:08:30.150Z,1720
2017-01-13T09:09:30.925Z,1548
2017-01-13T09:10:31.669Z,1520
2017-01-13T09:11:32.438Z,1608
2017-01-13T09:12:33.193Z,1628
2017-01-13T09:13:33.975Z,1680
2017-01-13T09:14:34.719Z,1680
2017-01-13T09:15:35.466Z,1560
2017-01-13T09:16:36.247Z,1632
2017-01-13T09:17:37.018Z,1548
2017-01-13T09:18:37.813Z,1336
2017-01-13T09:19:38.571Z,1300
2017-01-13T09:20:39.343Z,1296
2017-01-13T09:21:40.096Z,1388
2017-01-13T09:22:40.862Z,1448
2017-01-13T09:23:41.643Z,1592
2017-01-13T09:24:42.424Z,1644
2017-01-13T09:25:43.176Z,1636
2017-01-13T09:26:43.931Z,1808
2017-01-13T09:27:44.715Z,1800
2017-01-13T09:28:45.473Z,1636
2017-01-13T09:29:46.233Z,1648
2017-01-13T09:30:46.992Z,1676
2017-01-13T09:31:47.738Z,1588
2017-01-13T09:32:48.525Z,1716
2017-01-13T09:33:49.299Z,1728
2017-01-13T09:34:50.058Z,1784
2017-01-13T09:35:50.831Z,1728
2017-01-13T09:36:51.586Z,1828
2017-01-13T09:37:52.333Z,1968
2017-01-13T09:38:53.119Z,1984
2017-01-13T09:39:53.885Z,2048
2017-01-13T09:40:54.664Z,1884
2017-01-13T09:41:55.447Z,1576
2017-01-13T09:42:56.222Z,1640
2017-01-13T09:43:56.990Z,1544
2017-01-13T09:44:57.772Z,1704
2017-01-13T09:45:58.551Z,1584
2017-01-13T09:46:59.393Z,1636
2017-01-13T09:48:00.165Z,1696
2017-01-13T09:49:00.931Z,1904
2017-01-13T09:50:01.696Z,1848
2017-01-13T09:51:02.450Z,2264
2017-01-13T09:52:03.215Z,2128
2017-01-13T09:53:03.962Z,2100
2017-01-13T09:54:04.734Z,2212
2017-01-13T09:55:05.513Z,2240
2017-01-13T09:56:06.285Z,2040
2017-01-13T09:57:07.062Z,2068
2017-01-13T09:58:07.830Z,1840
2017-01-13T09:59:08.633Z,1604
2017-01-13T10:00:09.485Z,1632
2017-01-13T10:01:10.333Z,1648
2017-01-13T10:02:11.132Z,1500
2017-01-13T10:03:11.880Z,1920
2017-01-13T10:04:12.635Z,1800
2017-01-13T10:05:13.395Z,1764
2017-01-13T10:06:14.148Z,2100
2017-01-13T10:07:14.943Z,2036
2017-01-13T10:08:15.724Z,1956
2017-01-13T10:09:16.465Z,1904
2017-01-13T10:10:17.277Z,2052
2017-01-13T10:11:18.037Z,2228
2017-01-13T10:12:18.785Z,2164
2017-01-13T10:13:19.565Z,2212
2017-01-13T10:14:20.341Z,2208
2017-01-13T10:15:21.135Z,2356
2017-01-13T10:16:21.924Z,2244
2017-01-13T10:17:22.724Z,2360
2017-01-13T10:18:23.481Z,2348
2017-01-13T10:19:24.238Z,2220
2017-01-13T10:20:24.990Z,2192
2017-01-13T10:21:25.763Z,2264
2017-01-13T10:22:26.529Z,2656
2017-01-13T10:23:27.294Z,2980
2017-01-13T10:24:28.038Z,3084
2017-01-13T10:25:28.782Z,3244
2017-01-13T10:26:29.546Z,3548
2017-01-13T10:27:30.406Z,2896
2017-01-13T10:28:31.076Z,2428
2017-01-13T10:29:31.850Z,2180
2017-01-13T10:30:32.606Z,1944
2017-01-13T10:31:33.432Z,1948
2017-01-13T10:32:34.213Z,1860
2017-01-13T10:33:34.998Z,1736
2017-01-13T10:34:35.831Z,1704
2017-01-13T10:35:36.593Z,1660
2017-01-13T10:36:37.351Z,1544
2017-01-13T10:37:38.101Z,1464
2017-01-13T10:38:38.852Z,1544
2017-01-13T10:39:39.621Z,1664
2017-01-13T10:40:40.379Z,1728
2017-01-13T10:41:41.159Z,1860
2017-01-13T10:42:41.906Z,1832
2017-01-13T10:43:42.677Z,1672
2017-01-13T10:44:43.573Z,1568
2017-01-13T10:45:44.328Z,1596
2017-01-13T10:46:45.077Z,1732
2017-01-13T10:47:46.047Z,1840
2017-01-13T10:48:47.243Z,1812
2017-01-13T10:49:48.120Z,1820
2017-01-13T10:50:48.929Z,1760
2017-01-13T10:51:49.678Z,1760
2017-01-13T10:52:50.440Z,1828
2017-01-13T10:53:51.201Z,2196
2017-01-13T10:54:51.951Z,2288
2017-01-13T10:55:52.716Z,2160
2017-01-13T10:56:53.475Z,2348
2017-01-13T10:57:54.223Z,3096
2017-01-13T10:58:54.977Z,2960
2017-01-13T10:59:55.758Z,2752
2017-01-13T11:00:56.494Z,2900
2017-01-13T11:01:57.250Z,3432
2017-01-13T11:02:58.024Z,3532
2017-01-13T11:03:58.791Z,3456
2017-01-13T11:04:59.562Z,3560
2017-01-13T11:06:00.319Z,3596
2017-01-13T11:07:01.076Z,3444
2017-01-13T11:08:01.840Z,3728
2017-01-13T11:09:02.596Z,3704
2017-01-13T11:10:03.376Z,3740
2017-01-13T11:11:04.145Z,4028
2017-01-13T11:12:04.922Z,4272
2017-01-13T11:13:05.696Z,4224
2017-01-13T11:14:06.480Z,4028
2017-01-13T11:15:07.259Z,4052
2017-01-13T11:16:08.018Z,4392
2017-01-13T11:17:08.789Z,4284
2017-01-13T11:18:09.545Z,4508
2017-01-13T11:19:10.325Z,4456
2017-01-13T11:20:11.080Z,4248
2017-01-13T11:21:11.853Z,4088
2017-01-13T11:22:12.617Z,3612
2017-01-13T11:23:13.382Z,3080
2017-01-13T11:24:14.149Z,3300
2017-01-13T11:25:14.919Z,3132
2017-01-13T11:26:15.673Z,2992
2017-01-13T11:27:16.484Z,3388
2017-01-13T11:28:18.113Z,3960
2017-01-13T11:29:19.987Z,3964
2017-01-13T11:30:20.766Z,4068
2017-01-13T11:31:22.527Z,4340
2017-01-13T11:32:23.776Z,4008
2017-01-13T11:33:26.744Z,4280
2017-01-13T11:34:30.432Z,3968
2017-01-13T11:35:34.341Z,4132
2017-01-13T11:36:43.321Z,4292
2017-01-13T11:37:50.104Z,4384
2017-01-13T11:38:53.229Z,4684
2017-01-13T11:39:52.585Z,4384
2017-01-13T13:20:08.280Z,2856
2017-01-13T13:21:09.022Z,2860
2017-01-13T13:22:09.759Z,2908
2017-01-13T13:23:10.479Z,2896
2017-01-13T13:24:11.224Z,2884
2017-01-13T13:25:11.959Z,2816
2017-01-13T13:26:12.696Z,2588
2017-01-13T13:27:13.418Z,2696
2017-01-13T13:28:14.149Z,2868
2017-01-13T13:29:14.887Z,2924
2017-01-13T13:30:15.637Z,2840
2017-01-13T13:31:16.371Z,3188
2017-01-13T13:32:17.121Z,2768
2017-01-13T13:33:17.859Z,2448
2017-01-13T13:34:18.630Z,2356
2017-01-13T13:35:19.376Z,2332
2017-01-13T13:36:20.121Z,2352
2017-01-13T13:37:20.883Z,2276
2017-01-13T13:38:21.631Z,2344
2017-01-13T13:39:22.388Z,2420
2017-01-13T13:40:23.146Z,2344
2017-01-13T13:41:23.877Z,2300
2017-01-13T13:42:24.614Z,2428
2017-01-13T13:43:25.377Z,2664
2017-01-13T13:44:26.158Z,2836
2017-01-13T13:45:26.937Z,2892
2017-01-13T13:46:27.713Z,2744
2017-01-13T13:47:28.486Z,2484
2017-01-13T13:48:29.261Z,2292
2017-01-13T13:49:30.002Z,2244
2017-01-13T13:50:30.778Z,2352
2017-01-13T13:51:31.552Z,2504
2017-01-13T13:52:32.300Z,2692
2017-01-13T13:53:33.080Z,2644
2017-01-13T13:54:33.902Z,2484
2017-01-13T13:55:34.674Z,2460
2017-01-13T13:56:35.475Z,2144
2017-01-13T13:57:36.223Z,1832
2017-01-13T13:58:36.967Z,1672
2017-01-13T13:59:37.720Z,1576
2017-01-13T14:00:38.506Z,1484
2017-01-13T14:01:39.266Z,1360
2017-01-13T14:02:40.014Z,1220
2017-01-13T14:03:40.780Z,1120
2017-01-13T14:04:41.535Z,1016
2017-01-13T14:05:42.275Z,948
2017-01-13T14:06:43.064Z,992
2017-01-13T14:07:43.831Z,1128
2017-01-13T14:08:44.574Z,1296
2017-01-13T14:09:45.313Z,1444
2017-01-13T14:10:46.080Z,1676
2017-01-13T14:11:46.829Z,1908
2017-01-13T14:12:47.582Z,2016
2017-01-13T14:13:48.317Z,2060
2017-01-13T14:14:49.058Z,2124
2017-01-13T14:15:49.838Z,2152
2017-01-13T14:16:50.588Z,2168
2017-01-13T14:17:51.344Z,2092
2017-01-13T14:18:52.137Z,1976
2017-01-13T14:19:52.880Z,1876
2017-01-13T14:20:53.636Z,1804
2017-01-13T14:21:54.395Z,1736
2017-01-13T14:22:55.146Z,1724
2017-01-13T14:23:55.896Z,1688
2017-01-13T14:24:56.641Z,1628
2017-01-13T14:25:57.428Z,1624
2017-01-13T14:26:58.165Z,1648
2017-01-13T14:27:59.001Z,1692
2017-01-13T14:28:59.753Z,1888
2017-01-13T14:30:01.418Z,2148
2017-01-13T14:31:02.202Z,1972
2017-01-13T14:32:03.957Z,1828
2017-01-13T14:33:04.814Z,1684
2017-01-13T14:34:05.590Z,1560
2017-01-13T14:35:06.348Z,1504
2017-01-13T14:36:07.089Z,1380
2017-01-13T14:37:07.832Z,1268
2017-01-13T14:38:08.602Z,1196
2017-01-13T14:39:09.343Z,1156
2017-01-13T14:40:10.127Z,1124
2017-01-13T14:41:10.890Z,1100
2017-01-13T14:42:11.645Z,1080
2017-01-13T14:43:12.434Z,1068
2017-01-13T14:44:13.198Z,1052
2017-01-13T14:45:13.946Z,1036
2017-01-13T14:46:14.682Z,1016
2017-01-13T14:47:16.274Z,1000
2017-01-13T14:48:17.046Z,980
2017-01-13T14:49:17.801Z,960
2017-01-13T14:50:18.552Z,940
2017-01-13T14:51:19.314Z,920
2017-01-13T14:52:20.063Z,900
2017-01-13T14:53:20.802Z,880
2017-01-13T14:54:22.388Z,860
2017-01-13T14:55:23.318Z,840
2017-01-13T14:56:24.061Z,816
2017-01-13T14:57:24.813Z,796
2017-01-13T14:58:25.573Z,776
2017-01-13T14:59:26.308Z,752
2017-01-13T15:00:27.057Z,732
2017-01-13T15:01:27.817Z,712
2017-01-13T15:02:28.595Z,696
2017-01-13T15:03:29.348Z,672
2017-01-13T15:04:30.139Z,644
2017-01-13T15:05:30.950Z,624
2017-01-13T15:06:31.687Z,600
2017-01-13T15:07:32.430Z,572
2017-01-13T15:08:34.720Z,548
2017-01-13T15:09:36.572Z,524
2017-01-13T15:10:37.327Z,500
2017-01-13T15:11:38.070Z,476
2017-01-13T15:12:38.806Z,452
2017-01-13T15:13:39.567Z,432
2017-01-13T15:14:40.323Z,412
2017-01-13T15:15:41.065Z,392
2017-01-13T15:16:41.816Z,372
2017-01-13T15:17:42.560Z,348
2017-01-13T15:18:43.297Z,332
2017-01-13T15:19:44.056Z,308
2017-01-13T15:20:44.785Z,292
2017-01-13T15:21:45.529Z,276
2017-01-13T15:22:46.315Z,256
2017-01-13T15:23:47.072Z,244
2017-01-13T15:24:47.814Z,224
2017-01-13T15:25:48.613Z,208
2017-01-13T15:26:49.362Z,192
2017-01-13T15:27:50.125Z,176
2017-01-13T15:28:50.888Z,160
2017-01-13T15:29:51.655Z,148
2017-01-13T15:30:52.401Z,136
2017-01-13T15:31:53.168Z,124
2017-01-13T15:32:53.919Z,112
2017-01-13T15:33:54.696Z,100
2017-01-13T15:34:55.449Z,92
2017-01-13T15:35:56.313Z,80
2017-01-13T15:36:57.051Z,76
2017-01-13T15:37:57.812Z,68
2017-01-13T15:38:58.589Z,56
2017-01-13T15:39:59.332Z,52
2017-01-13T15:41:00.089Z,44
2017-01-13T15:42:00.821Z,40
2017-01-13T15:43:01.577Z,36
2017-01-13T15:44:02.363Z,32
2017-01-13T15:45:03.104Z,28
2017-01-13T15:46:03.849Z,24
2017-01-13T15:47:04.616Z,24
2017-01-13T15:48:05.354Z,16
2017-01-13T15:49:06.111Z,16
2017-01-13T15:50:06.857Z,12
2017-01-13T15:51:07.598Z,12
2017-01-13T15:52:08.328Z,8
2017-01-13T15:53:09.076Z,8
2017-01-13T15:54:09.817Z,8
2017-01-13T15:55:10.575Z,4
2017-01-13T15:56:11.316Z,8
2017-01-13T15:57:12.121Z,4
2017-01-13T15:58:12.854Z,4
2017-01-13T15:59:13.588Z,4